createdAt,value
2023-04-10T00:08:08.571Z,100.00
2023-04-10T00:18:10.559Z,100.00
2023-04-10T00:28:12.559Z,100.00
2023-04-10T00:38:14.579Z,100.00
2023-04-10T00:48:16.519Z,100.00
2023-04-10T00:58:18.689Z,100.00
2023-04-10T01:08:52.372Z,100.00
2023-04-10T01:19:01.229Z,100.00
2023-04-10T01:29:09.793Z,100.00
2023-04-10T01:39:12.702Z,100.00
2023-04-10T01:49:15.635Z,100.00
2023-04-10T01:59:19.880Z,100.00
2023-04-10T02:09:59.039Z,100.00
2023-04-10T02:20:04.807Z,100.00
2023-04-10T02:30:09.301Z,100.00
2023-04-10T02:40:11.501Z,100.00
2023-04-10T02:50:13.537Z,100.00
2023-04-10T03:00:16.667Z,100.00
2023-04-10T03:10:18.550Z,100.00
2023-04-10T03:20:20.579Z,100.00
2023-04-10T03:30:22.541Z,100.00
2023-04-10T03:40:26.453Z,100.00
2023-04-10T03:50:30.765Z,100.00
2023-04-10T04:00:34.015Z,100.00
2023-04-10T04:10:36.997Z,100.00
2023-04-10T04:20:38.853Z,100.00
2023-04-10T04:30:41.107Z,100.00
2023-04-10T04:40:43.308Z,100.00
2023-04-10T04:50:46.223Z,100.00
2023-04-10T05:00:48.113Z,100.00
2023-04-10T05:10:50.335Z,100.00
2023-04-10T05:20:52.274Z,100.00
2023-04-10T05:30:54.250Z,100.00
2023-04-10T05:40:57.152Z,100.00
2023-04-10T05:51:01.137Z,100.00
2023-04-10T06:01:03.038Z,100.00
2023-04-10T06:11:05.179Z,97.19
2023-04-10T06:21:07.626Z,86.14
2023-04-10T06:31:09.586Z,77.26
2023-04-10T06:41:17.229Z,78.32
2023-04-10T06:51:19.149Z,76.61
2023-04-10T07:01:30.038Z,70.80
2023-04-10T07:11:33.033Z,71.20
2023-04-10T07:21:34.992Z,67.73
2023-04-10T07:31:40.162Z,63.19
2023-04-10T07:41:42.266Z,66.52
2023-04-10T07:51:44.198Z,60.72
2023-04-10T08:01:48.212Z,57.82
2023-04-10T08:11:50.266Z,56.22
2023-04-10T08:21:52.320Z,58.79
2023-04-10T08:31:56.746Z,59.47
2023-04-10T08:41:58.812Z,60.28
2023-04-10T08:52:04.463Z,61.47
2023-04-10T09:02:06.817Z,57.89
2023-04-10T09:12:13.437Z,58.12
2023-04-10T09:22:17.513Z,62.11
2023-04-10T09:32:49.276Z,58.97
2023-04-10T09:43:00.407Z,58.68
2023-04-10T09:53:02.500Z,59.20
2023-04-10T10:03:08.434Z,59.87
2023-04-10T10:13:18.410Z,54.13
2023-04-10T10:23:22.732Z,54.82
2023-04-10T10:33:26.488Z,53.51
2023-04-10T10:43:58.221Z,51.91
2023-04-10T10:54:01.350Z,52.93
2023-04-10T11:05:01.946Z,51.29
2023-04-10T11:15:13.329Z,51.01
2023-04-10T11:25:15.413Z,52.70
2023-04-10T11:35:20.231Z,53.86
2023-04-10T11:45:27.097Z,51.33
2023-04-10T11:55:39.300Z,51.89
2023-04-10T12:05:51.632Z,49.56
2023-04-10T12:15:54.822Z,49.78
2023-04-10T12:26:10.941Z,48.02
2023-04-10T12:36:30.469Z,44.78
2023-04-10T12:46:32.609Z,45.33
2023-04-10T12:56:44.501Z,46.92
2023-04-10T13:06:53.227Z,47.98
2023-04-10T13:16:55.202Z,46.69
2023-04-10T13:26:59.173Z,49.45
2023-04-10T13:37:01.866Z,48.26
2023-04-10T13:47:03.998Z,46.01
2023-04-10T13:57:07.045Z,45.87
2023-04-10T14:07:12.531Z,44.82
2023-04-10T14:17:15.553Z,44.74
2023-04-10T14:27:19.560Z,45.67
2023-04-10T14:37:22.660Z,45.87
2023-04-10T14:47:26.721Z,48.93
2023-04-10T14:57:29.932Z,49.54
2023-04-10T15:07:32.000Z,50.43
2023-04-10T15:17:34.015Z,51.27
2023-04-10T15:27:36.258Z,51.79
2023-04-10T15:37:38.315Z,53.57
2023-04-10T15:47:40.489Z,55.23
2023-04-10T15:57:43.536Z,55.63
2023-04-10T16:07:46.558Z,57.19
2023-04-10T16:17:48.650Z,60.10
2023-04-10T16:27:50.968Z,58.10
2023-04-10T16:37:54.691Z,62.03
2023-04-10T16:47:57.814Z,64.42
2023-04-10T16:58:04.207Z,63.40
2023-04-10T17:08:06.721Z,61.46
2023-04-10T17:18:08.867Z,59.92
2023-04-10T17:28:11.095Z,60.37
2023-04-10T17:38:13.612Z,60.42
2023-04-10T17:48:19.161Z,63.64
2023-04-10T17:58:21.679Z,67.57
2023-04-10T18:08:23.744Z,71.42
2023-04-10T18:18:25.935Z,76.54
2023-04-10T18:28:38.116Z,77.34
2023-04-10T18:38:44.136Z,78.26
2023-04-10T18:48:58.428Z,79.69
2023-04-10T18:59:06.840Z,83.71
2023-04-10T19:09:18.107Z,84.24
2023-04-10T19:19:21.560Z,85.97
2023-04-10T19:29:24.757Z,87.14
2023-04-10T19:39:29.399Z,82.03
2023-04-10T19:49:35.176Z,87.85
2023-04-10T19:59:37.959Z,88.64
2023-04-10T20:09:46.021Z,88.40
2023-04-10T20:19:47.964Z,93.45
2023-04-10T20:29:50.781Z,94.55
2023-04-10T20:39:52.922Z,94.81
2023-04-10T20:49:55.131Z,95.19
2023-04-10T20:59:57.136Z,97.96
2023-04-10T21:09:59.316Z,98.57
2023-04-10T21:20:05.824Z,100.00
2023-04-10T21:30:09.261Z,100.00
2023-04-10T21:40:11.412Z,100.00
2023-04-10T21:50:14.411Z,100.00
2023-04-10T22:00:17.242Z,100.00
2023-04-10T22:10:20.271Z,100.00
2023-04-10T22:20:22.211Z,100.00
2023-04-10T22:30:26.808Z,100.00
2023-04-10T22:40:28.775Z,100.00
2023-04-10T22:50:33.288Z,100.00
2023-04-10T23:00:35.188Z,100.00
2023-04-10T23:10:37.161Z,100.00
2023-04-10T23:20:39.214Z,100.00
2023-04-10T23:30:43.081Z,100.00
2023-04-10T23:40:45.252Z,100.00
2023-04-10T23:50:47.113Z,100.00
